sensor_id;sensor_type;location;lat;lon;timestamp;temperature;humidity
11764;DHT22;5939;56.522;14.950;2023-01-28T00:00:25;0.40;99.90
11764;DHT22;5939;56.522;14.950;2023-01-28T00:02:50;0.40;99.90
11764;DHT22;5939;56.522;14.950;2023-01-28T00:05:16;0.40;99.90
11764;DHT22;5939;56.522;14.950;2023-01-28T00:07:42;0.40;99.90
11764;DHT22;5939;56.522;14.950;2023-01-28T00:10:08;0.40;99.90
11764;DHT22;5939;56.522;14.950;2023-01-28T00:12:33;0.40;99.90
11764;DHT22;5939;56.522;14.950;2023-01-28T00:14:59;0.40;99.90
11764;DHT22;5939;56.522;14.950;2023-01-28T00:17:25;0.40;99.90
11764;DHT22;5939;56.522;14.950;2023-01-28T00:19:50;0.30;99.90
11764;DHT22;5939;56.522;14.950;2023-01-28T00:22:16;0.40;99.90
11764;DHT22;5939;56.522;14.950;2023-01-28T00:24:41;0.30;99.90
11764;DHT22;5939;56.522;14.950;2023-01-28T00:27:07;0.30;99.90
11764;DHT22;5939;56.522;14.950;2023-01-28T00:29:33;0.30;99.90
11764;DHT22;5939;56.522;14.950;2023-01-28T00:31:59;0.30;99.90
11764;DHT22;5939;56.522;14.950;2023-01-28T00:34:24;0.30;99.90
11764;DHT22;5939;56.522;14.950;2023-01-28T00:36:51;0.30;99.90
11764;DHT22;5939;56.522;14.950;2023-01-28T00:39:23;0.20;99.90
11764;DHT22;5939;56.522;14.950;2023-01-28T00:41:50;0.20;99.90
11764;DHT22;5939;56.522;14.950;2023-01-28T00:44:16;0.20;99.90
11764;DHT22;5939;56.522;14.950;2023-01-28T00:46:41;0.20;99.90
11764;DHT22;5939;56.522;14.950;2023-01-28T00:49:07;0.20;99.90
11764;DHT22;5939;56.522;14.950;2023-01-28T00:51:33;0.20;99.90
11764;DHT22;5939;56.522;14.950;2023-01-28T00:53:58;0.20;99.90
11764;DHT22;5939;56.522;14.950;2023-01-28T00:56:24;0.10;99.90
11764;DHT22;5939;56.522;14.950;2023-01-28T00:58:50;0.10;99.90
11764;DHT22;5939;56.522;14.950;2023-01-28T01:01:21;0.10;99.90
11764;DHT22;5939;56.522;14.950;2023-01-28T01:03:48;0.10;99.90
11764;DHT22;5939;56.522;14.950;2023-01-28T01:06:23;0.10;99.90
11764;DHT22;5939;56.522;14.950;2023-01-28T01:08:49;0.10;99.90
11764;DHT22;5939;56.522;14.950;2023-01-28T01:11:16;0.10;99.90
11764;DHT22;5939;56.522;14.950;2023-01-28T01:13:42;0.10;99.90
11764;DHT22;5939;56.522;14.950;2023-01-28T01:16:10;0.10;99.90
11764;DHT22;5939;56.522;14.950;2023-01-28T01:18:37;0.10;99.90
11764;DHT22;5939;56.522;14.950;2023-01-28T01:21:11;0.00;99.90
11764;DHT22;5939;56.522;14.950;2023-01-28T01:23:37;0.00;99.90
11764;DHT22;5939;56.522;14.950;2023-01-28T01:26:04;0.00;99.90
11764;DHT22;5939;56.522;14.950;2023-01-28T01:28:31;0.00;99.90
11764;DHT22;5939;56.522;14.950;2023-01-28T01:31:06;0.00;99.90
11764;DHT22;5939;56.522;14.950;2023-01-28T01:33:33;0.00;99.90
11764;DHT22;5939;56.522;14.950;2023-01-28T01:35:59;0.00;99.90
11764;DHT22;5939;56.522;14.950;2023-01-28T01:38:25;-0.10;99.90
11764;DHT22;5939;56.522;14.950;2023-01-28T01:40:51;-0.10;99.90
11764;DHT22;5939;56.522;14.950;2023-01-28T01:43:21;-0.10;99.90
11764;DHT22;5939;56.522;14.950;2023-01-28T01:45:53;-0.10;99.90
11764;DHT22;5939;56.522;14.950;2023-01-28T01:48:31;-0.10;99.90
11764;DHT22;5939;56.522;14.950;2023-01-28T01:51:02;-0.10;99.90
11764;DHT22;5939;56.522;14.950;2023-01-28T01:53:30;-0.10;99.90
11764;DHT22;5939;56.522;14.950;2023-01-28T01:55:59;-0.10;99.90
11764;DHT22;5939;56.522;14.950;2023-01-28T01:58:29;-0.10;99.90
11764;DHT22;5939;56.522;14.950;2023-01-28T02:00:56;-0.10;99.90
11764;DHT22;5939;56.522;14.950;2023-01-28T02:03:28;-0.20;99.90
11764;DHT22;5939;56.522;14.950;2023-01-28T02:05:55;-0.20;99.90
11764;DHT22;5939;56.522;14.950;2023-01-28T02:08:21;-0.20;99.90
11764;DHT22;5939;56.522;14.950;2023-01-28T02:13:15;-0.20;99.90
11764;DHT22;5939;56.522;14.950;2023-01-28T02:15:43;-0.20;99.90
11764;DHT22;5939;56.522;14.950;2023-01-28T02:18:09;-0.20;99.90
11764;DHT22;5939;56.522;14.950;2023-01-28T02:21:09;-0.30;99.90
11764;DHT22;5939;56.522;14.950;2023-01-28T02:29:23;-0.30;99.90
11764;DHT22;5939;56.522;14.950;2023-01-28T02:32:06;-0.30;99.90
11764;DHT22;5939;56.522;14.950;2023-01-28T02:34:55;-0.30;99.90
11764;DHT22;5939;56.522;14.950;2023-01-28T02:37:33;-0.30;99.90
11764;DHT22;5939;56.522;14.950;2023-01-28T02:40:27;-0.30;99.90
11764;DHT22;5939;56.522;14.950;2023-01-28T02:42:55;-0.30;99.90
11764;DHT22;5939;56.522;14.950;2023-01-28T02:45:34;-0.30;99.90
11764;DHT22;5939;56.522;14.950;2023-01-28T02:48:21;-0.30;99.90
11764;DHT22;5939;56.522;14.950;2023-01-28T02:51:02;-0.40;99.90
11764;DHT22;5939;56.522;14.950;2023-01-28T02:53:35;-0.40;99.90
11764;DHT22;5939;56.522;14.950;2023-01-28T02:56:19;-0.40;99.90
11764;DHT22;5939;56.522;14.950;2023-01-28T03:02:19;-0.40;99.90
11764;DHT22;5939;56.522;14.950;2023-01-28T03:05:40;-0.40;99.90
11764;DHT22;5939;56.522;14.950;2023-01-28T03:08:53;-0.40;99.90
11764;DHT22;5939;56.522;14.950;2023-01-28T03:11:56;-0.40;99.90
11764;DHT22;5939;56.522;14.950;2023-01-28T03:14:42;-0.50;99.90
11764;DHT22;5939;56.522;14.950;2023-01-28T03:20:49;-0.50;99.90
11764;DHT22;5939;56.522;14.950;2023-01-28T03:23:40;-0.50;99.90
11764;DHT22;5939;56.522;14.950;2023-01-28T03:26:28;-0.50;99.90
11764;DHT22;5939;56.522;14.950;2023-01-28T03:29:14;-0.50;99.90
11764;DHT22;5939;56.522;14.950;2023-01-28T03:32:01;-0.50;99.90
11764;DHT22;5939;56.522;14.950;2023-01-28T03:34:46;-0.50;99.90
11764;DHT22;5939;56.522;14.950;2023-01-28T03:37:31;-0.50;99.90
11764;DHT22;5939;56.522;14.950;2023-01-28T03:40:05;-0.50;99.90
11764;DHT22;5939;56.522;14.950;2023-01-28T03:42:32;-0.50;99.90
11764;DHT22;5939;56.522;14.950;2023-01-28T03:44:59;-0.60;99.90
11764;DHT22;5939;56.522;14.950;2023-01-28T03:47:28;-0.60;99.90
11764;DHT22;5939;56.522;14.950;2023-01-28T03:49:55;-0.60;99.90
11764;DHT22;5939;56.522;14.950;2023-01-28T03:52:23;-0.60;99.90
11764;DHT22;5939;56.522;14.950;2023-01-28T03:54:49;-0.60;99.90
11764;DHT22;5939;56.522;14.950;2023-01-28T03:57:21;-0.60;99.90
11764;DHT22;5939;56.522;14.950;2023-01-28T03:59:47;-0.60;99.90
11764;DHT22;5939;56.522;14.950;2023-01-28T04:02:18;-0.60;99.90
11764;DHT22;5939;56.522;14.950;2023-01-28T04:04:44;-0.60;99.90
11764;DHT22;5939;56.522;14.950;2023-01-28T04:07:11;-0.60;99.90
11764;DHT22;5939;56.522;14.950;2023-01-28T04:09:38;-0.60;99.90
11764;DHT22;5939;56.522;14.950;2023-01-28T04:12:04;-0.60;99.90
11764;DHT22;5939;56.522;14.950;2023-01-28T04:14:31;-0.60;99.90
11764;DHT22;5939;56.522;14.950;2023-01-28T04:16:57;-0.60;99.90
11764;DHT22;5939;56.522;14.950;2023-01-28T04:19:24;-0.60;99.90
11764;DHT22;5939;56.522;14.950;2023-01-28T04:21:49;-0.60;99.90
11764;DHT22;5939;56.522;14.950;2023-01-28T04:24:18;-0.70;99.90
11764;DHT22;5939;56.522;14.950;2023-01-28T04:26:44;-0.70;99.90
11764;DHT22;5939;56.522;14.950;2023-01-28T04:29:10;-0.70;99.90
11764;DHT22;5939;56.522;14.950;2023-01-28T04:31:36;-0.70;99.90
11764;DHT22;5939;56.522;14.950;2023-01-28T04:34:01;-0.70;99.90
11764;DHT22;5939;56.522;14.950;2023-01-28T04:36:27;-0.70;99.90
11764;DHT22;5939;56.522;14.950;2023-01-28T04:38:52;-0.70;99.90
11764;DHT22;5939;56.522;14.950;2023-01-28T04:41:19;-0.70;99.90
11764;DHT22;5939;56.522;14.950;2023-01-28T04:43:44;-0.70;99.90
11764;DHT22;5939;56.522;14.950;2023-01-28T04:46:10;-0.70;99.90
11764;DHT22;5939;56.522;14.950;2023-01-28T04:48:36;-0.70;99.90
11764;DHT22;5939;56.522;14.950;2023-01-28T04:51:03;-0.70;99.90
11764;DHT22;5939;56.522;14.950;2023-01-28T04:53:29;-0.70;99.90
11764;DHT22;5939;56.522;14.950;2023-01-28T04:55:56;-0.80;99.90
11764;DHT22;5939;56.522;14.950;2023-01-28T04:58:22;-0.80;99.90
11764;DHT22;5939;56.522;14.950;2023-01-28T05:00:55;-0.80;99.90
11764;DHT22;5939;56.522;14.950;2023-01-28T05:03:21;-0.80;99.90
11764;DHT22;5939;56.522;14.950;2023-01-28T05:05:47;-0.80;99.90
11764;DHT22;5939;56.522;14.950;2023-01-28T05:08:13;-0.80;99.90
11764;DHT22;5939;56.522;14.950;2023-01-28T05:10:38;-0.80;99.90
11764;DHT22;5939;56.522;14.950;2023-01-28T05:13:05;-0.80;99.90
11764;DHT22;5939;56.522;14.950;2023-01-28T05:15:30;-0.80;99.90
11764;DHT22;5939;56.522;14.950;2023-01-28T05:17:56;-0.80;99.90
11764;DHT22;5939;56.522;14.950;2023-01-28T05:20:22;-0.80;99.90
11764;DHT22;5939;56.522;14.950;2023-01-28T05:22:48;-0.80;99.90
11764;DHT22;5939;56.522;14.950;2023-01-28T05:25:13;-0.80;99.90
11764;DHT22;5939;56.522;14.950;2023-01-28T05:27:39;-0.80;99.90
11764;DHT22;5939;56.522;14.950;2023-01-28T05:30:05;-0.80;99.90
11764;DHT22;5939;56.522;14.950;2023-01-28T05:32:31;-0.80;99.90
11764;DHT22;5939;56.522;14.950;2023-01-28T05:34:57;-0.80;99.90
11764;DHT22;5939;56.522;14.950;2023-01-28T05:37:22;-0.80;99.90
11764;DHT22;5939;56.522;14.950;2023-01-28T05:39:48;-0.80;99.90
11764;DHT22;5939;56.522;14.950;2023-01-28T05:42:13;-0.80;99.90
11764;DHT22;5939;56.522;14.950;2023-01-28T05:44:40;-0.80;99.90
11764;DHT22;5939;56.522;14.950;2023-01-28T05:47:06;-0.80;99.90
11764;DHT22;5939;56.522;14.950;2023-01-28T05:49:31;-0.80;99.90
11764;DHT22;5939;56.522;14.950;2023-01-28T05:51:57;-0.90;99.90
11764;DHT22;5939;56.522;14.950;2023-01-28T05:54:23;-0.80;99.90
11764;DHT22;5939;56.522;14.950;2023-01-28T05:56:48;-0.80;99.90
11764;DHT22;5939;56.522;14.950;2023-01-28T05:59:14;-0.80;99.90
11764;DHT22;5939;56.522;14.950;2023-01-28T06:01:40;-0.80;99.90
11764;DHT22;5939;56.522;14.950;2023-01-28T06:04:06;-0.80;99.90
11764;DHT22;5939;56.522;14.950;2023-01-28T06:06:32;-0.80;99.90
11764;DHT22;5939;56.522;14.950;2023-01-28T06:08:57;-0.80;99.90
11764;DHT22;5939;56.522;14.950;2023-01-28T06:11:23;-0.80;99.90
11764;DHT22;5939;56.522;14.950;2023-01-28T06:13:49;-0.80;99.90
11764;DHT22;5939;56.522;14.950;2023-01-28T06:16:14;-0.80;99.90
11764;DHT22;5939;56.522;14.950;2023-01-28T06:18:40;-0.80;99.90
11764;DHT22;5939;56.522;14.950;2023-01-28T06:21:06;-0.80;99.90
11764;DHT22;5939;56.522;14.950;2023-01-28T06:23:32;-0.80;99.90
11764;DHT22;5939;56.522;14.950;2023-01-28T06:25:58;-0.80;99.90
11764;DHT22;5939;56.522;14.950;2023-01-28T06:28:25;-0.80;99.90
11764;DHT22;5939;56.522;14.950;2023-01-28T06:30:51;-0.80;99.90
11764;DHT22;5939;56.522;14.950;2023-01-28T06:33:18;-0.90;99.90
11764;DHT22;5939;56.522;14.950;2023-01-28T06:35:44;-0.80;99.90
11764;DHT22;5939;56.522;14.950;2023-01-28T06:38:11;-0.80;99.90
11764;DHT22;5939;56.522;14.950;2023-01-28T06:40:36;-0.80;99.90
11764;DHT22;5939;56.522;14.950;2023-01-28T06:43:03;-0.80;99.90
11764;DHT22;5939;56.522;14.950;2023-01-28T06:45:28;-0.80;99.90
11764;DHT22;5939;56.522;14.950;2023-01-28T06:47:54;-0.80;99.90
11764;DHT22;5939;56.522;14.950;2023-01-28T06:50:20;-0.80;99.90
11764;DHT22;5939;56.522;14.950;2023-01-28T06:52:45;-0.80;99.90
11764;DHT22;5939;56.522;14.950;2023-01-28T06:55:11;-0.80;99.90
11764;DHT22;5939;56.522;14.950;2023-01-28T06:57:38;-0.80;99.90
11764;DHT22;5939;56.522;14.950;2023-01-28T07:00:05;-0.80;99.90
11764;DHT22;5939;56.522;14.950;2023-01-28T07:02:32;-0.80;99.90
11764;DHT22;5939;56.522;14.950;2023-01-28T07:04:58;-0.80;99.90
11764;DHT22;5939;56.522;14.950;2023-01-28T07:07:23;-0.80;99.90
11764;DHT22;5939;56.522;14.950;2023-01-28T07:09:49;-0.70;99.90
11764;DHT22;5939;56.522;14.950;2023-01-28T07:12:15;-0.80;99.90
11764;DHT22;5939;56.522;14.950;2023-01-28T07:14:41;-0.70;99.90
11764;DHT22;5939;56.522;14.950;2023-01-28T07:17:07;-0.70;99.90
11764;DHT22;5939;56.522;14.950;2023-01-28T07:19:32;-0.70;99.90
11764;DHT22;5939;56.522;14.950;2023-01-28T07:21:58;-0.70;99.90
11764;DHT22;5939;56.522;14.950;2023-01-28T07:24:25;-0.70;99.90
11764;DHT22;5939;56.522;14.950;2023-01-28T07:26:51;-0.70;99.90
11764;DHT22;5939;56.522;14.950;2023-01-28T07:29:17;-0.70;99.90
11764;DHT22;5939;56.522;14.950;2023-01-28T07:31:42;-0.70;99.90
11764;DHT22;5939;56.522;14.950;2023-01-28T07:34:08;-0.70;99.90
11764;DHT22;5939;56.522;14.950;2023-01-28T07:36:34;-0.70;99.90
11764;DHT22;5939;56.522;14.950;2023-01-28T07:39:00;-0.60;99.90
11764;DHT22;5939;56.522;14.950;2023-01-28T07:41:25;-0.60;99.90
11764;DHT22;5939;56.522;14.950;2023-01-28T07:43:52;-0.60;99.90
11764;DHT22;5939;56.522;14.950;2023-01-28T07:46:17;-0.60;99.90
11764;DHT22;5939;56.522;14.950;2023-01-28T07:48:43;-0.60;99.90
11764;DHT22;5939;56.522;14.950;2023-01-28T07:51:10;-0.60;99.90
11764;DHT22;5939;56.522;14.950;2023-01-28T07:53:36;-0.60;99.90
11764;DHT22;5939;56.522;14.950;2023-01-28T07:56:02;-0.60;99.90
11764;DHT22;5939;56.522;14.950;2023-01-28T07:58:29;-0.50;99.90
11764;DHT22;5939;56.522;14.950;2023-01-28T08:00:57;-0.50;99.90
11764;DHT22;5939;56.522;14.950;2023-01-28T08:03:23;-0.50;99.90
11764;DHT22;5939;56.522;14.950;2023-01-28T08:05:51;-0.50;99.90
11764;DHT22;5939;56.522;14.950;2023-01-28T08:08:17;-0.50;99.90
11764;DHT22;5939;56.522;14.950;2023-01-28T08:10:43;-0.50;99.90
11764;DHT22;5939;56.522;14.950;2023-01-28T08:13:10;-0.50;99.90
11764;DHT22;5939;56.522;14.950;2023-01-28T08:15:36;-0.50;99.90
11764;DHT22;5939;56.522;14.950;2023-01-28T08:18:04;-0.50;99.90
11764;DHT22;5939;56.522;14.950;2023-01-28T08:20:30;-0.50;99.90
11764;DHT22;5939;56.522;14.950;2023-01-28T08:23:10;-0.40;99.90
11764;DHT22;5939;56.522;14.950;2023-01-28T08:25:36;-0.40;99.90
11764;DHT22;5939;56.522;14.950;2023-01-28T08:28:03;-0.40;99.90
11764;DHT22;5939;56.522;14.950;2023-01-28T08:30:29;-0.40;99.90
11764;DHT22;5939;56.522;14.950;2023-01-28T08:32:56;-0.40;99.90
11764;DHT22;5939;56.522;14.950;2023-01-28T08:35:25;-0.40;99.90
11764;DHT22;5939;56.522;14.950;2023-01-28T08:37:51;-0.40;99.90
11764;DHT22;5939;56.522;14.950;2023-01-28T08:40:17;-0.40;99.90
11764;DHT22;5939;56.522;14.950;2023-01-28T08:42:50;-0.30;99.90
11764;DHT22;5939;56.522;14.950;2023-01-28T08:45:17;-0.30;99.90
11764;DHT22;5939;56.522;14.950;2023-01-28T08:47:48;-0.30;99.90
11764;DHT22;5939;56.522;14.950;2023-01-28T08:50:14;-0.30;99.90
11764;DHT22;5939;56.522;14.950;2023-01-28T08:52:40;-0.30;99.90
11764;DHT22;5939;56.522;14.950;2023-01-28T08:55:12;-0.30;99.90
11764;DHT22;5939;56.522;14.950;2023-01-28T08:57:38;-0.30;99.90
11764;DHT22;5939;56.522;14.950;2023-01-28T09:00:04;-0.30;99.90
11764;DHT22;5939;56.522;14.950;2023-01-28T09:02:31;-0.20;99.90
11764;DHT22;5939;56.522;14.950;2023-01-28T09:04:56;-0.20;99.90
11764;DHT22;5939;56.522;14.950;2023-01-28T09:07:22;-0.20;99.90
11764;DHT22;5939;56.522;14.950;2023-01-28T09:09:48;-0.20;99.90
11764;DHT22;5939;56.522;14.950;2023-01-28T09:12:13;-0.20;99.90
11764;DHT22;5939;56.522;14.950;2023-01-28T09:14:39;-0.20;99.90
11764;DHT22;5939;56.522;14.950;2023-01-28T09:17:05;-0.10;99.90
11764;DHT22;5939;56.522;14.950;2023-01-28T09:19:30;-0.10;99.90
11764;DHT22;5939;56.522;14.950;2023-01-28T09:21:56;-0.10;99.90
11764;DHT22;5939;56.522;14.950;2023-01-28T09:24:21;-0.10;99.90
11764;DHT22;5939;56.522;14.950;2023-01-28T09:26:48;-0.10;99.90
11764;DHT22;5939;56.522;14.950;2023-01-28T09:29:14;-0.10;99.90
11764;DHT22;5939;56.522;14.950;2023-01-28T09:31:41;-0.10;99.90
11764;DHT22;5939;56.522;14.950;2023-01-28T09:34:07;-0.10;99.90
11764;DHT22;5939;56.522;14.950;2023-01-28T09:36:33;-0.10;99.90
11764;DHT22;5939;56.522;14.950;2023-01-28T09:38:58;-0.10;99.90
11764;DHT22;5939;56.522;14.950;2023-01-28T09:41:32;-0.10;99.90
11764;DHT22;5939;56.522;14.950;2023-01-28T09:46:38;0.00;99.90
11764;DHT22;5939;56.522;14.950;2023-01-28T09:49:16;0.00;99.90
11764;DHT22;5939;56.522;14.950;2023-01-28T09:51:51;0.00;99.90
11764;DHT22;5939;56.522;14.950;2023-01-28T09:57:40;0.00;99.90
11764;DHT22;5939;56.522;14.950;2023-01-28T10:00:14;0.00;99.90
11764;DHT22;5939;56.522;14.950;2023-01-28T10:02:55;0.00;99.90
11764;DHT22;5939;56.522;14.950;2023-01-28T10:13:56;0.10;99.90
11764;DHT22;5939;56.522;14.950;2023-01-28T10:16:28;0.10;99.90
11764;DHT22;5939;56.522;14.950;2023-01-28T10:19:02;0.10;99.90
11764;DHT22;5939;56.522;14.950;2023-01-28T10:21:54;0.10;99.90
11764;DHT22;5939;56.522;14.950;2023-01-28T10:24:31;0.10;99.90
11764;DHT22;5939;56.522;14.950;2023-01-28T10:26:58;0.20;99.90
11764;DHT22;5939;56.522;14.950;2023-01-28T10:29:32;0.20;99.90
11764;DHT22;5939;56.522;14.950;2023-01-28T10:34:43;0.20;99.90
11764;DHT22;5939;56.522;14.950;2023-01-28T10:37:12;0.20;99.90
11764;DHT22;5939;56.522;14.950;2023-01-28T10:39:39;0.20;99.90
11764;DHT22;5939;56.522;14.950;2023-01-28T10:42:28;0.20;99.90
11764;DHT22;5939;56.522;14.950;2023-01-28T10:47:43;0.30;99.90
11764;DHT22;5939;56.522;14.950;2023-01-28T10:50:23;0.30;99.90
11764;DHT22;5939;56.522;14.950;2023-01-28T10:53:01;0.30;99.90
11764;DHT22;5939;56.522;14.950;2023-01-28T10:55:50;0.30;99.90
11764;DHT22;5939;56.522;14.950;2023-01-28T10:58:19;0.30;99.90
11764;DHT22;5939;56.522;14.950;2023-01-28T11:00:55;0.30;99.90
11764;DHT22;5939;56.522;14.950;2023-01-28T11:03:22;0.30;99.90
11764;DHT22;5939;56.522;14.950;2023-01-28T11:05:53;0.40;99.90
11764;DHT22;5939;56.522;14.950;2023-01-28T11:08:20;0.40;99.90
11764;DHT22;5939;56.522;14.950;2023-01-28T11:10:47;0.40;99.90
11764;DHT22;5939;56.522;14.950;2023-01-28T11:13:19;0.40;99.90
11764;DHT22;5939;56.522;14.950;2023-01-28T11:15:53;0.40;99.90
11764;DHT22;5939;56.522;14.950;2023-01-28T11:18:25;0.40;99.90
11764;DHT22;5939;56.522;14.950;2023-01-28T11:20:58;0.40;99.90
11764;DHT22;5939;56.522;14.950;2023-01-28T11:23:27;0.40;99.90
11764;DHT22;5939;56.522;14.950;2023-01-28T11:26:08;0.50;99.90
11764;DHT22;5939;56.522;14.950;2023-01-28T11:28:40;0.50;99.90
11764;DHT22;5939;56.522;14.950;2023-01-28T11:31:07;0.50;99.90
11764;DHT22;5939;56.522;14.950;2023-01-28T11:34:01;0.50;99.90
11764;DHT22;5939;56.522;14.950;2023-01-28T11:36:31;0.50;99.90
11764;DHT22;5939;56.522;14.950;2023-01-28T11:39:00;0.50;99.90
11764;DHT22;5939;56.522;14.950;2023-01-28T11:41:32;0.50;99.90
11764;DHT22;5939;56.522;14.950;2023-01-28T11:44:19;0.60;99.90
11764;DHT22;5939;56.522;14.950;2023-01-28T11:58:01;0.60;99.90
11764;DHT22;5939;56.522;14.950;2023-01-28T12:05:44;0.70;99.90
11764;DHT22;5939;56.522;14.950;2023-01-28T12:08:32;0.70;99.90
11764;DHT22;5939;56.522;14.950;2023-01-28T12:11:17;0.70;99.90
11764;DHT22;5939;56.522;14.950;2023-01-28T12:19:24;0.80;99.90
11764;DHT22;5939;56.522;14.950;2023-01-28T12:22:20;0.80;99.90
11764;DHT22;5939;56.522;14.950;2023-01-28T12:33:37;0.80;99.90
11764;DHT22;5939;56.522;14.950;2023-01-28T12:36:34;0.80;99.90
11764;DHT22;5939;56.522;14.950;2023-01-28T12:41:40;0.80;99.90
11764;DHT22;5939;56.522;14.950;2023-01-28T12:44:49;0.90;99.90
11764;DHT22;5939;56.522;14.950;2023-01-28T12:47:21;0.90;99.90
11764;DHT22;5939;56.522;14.950;2023-01-28T12:49:55;0.90;99.90
11764;DHT22;5939;56.522;14.950;2023-01-28T12:52:39;0.90;99.90
11764;DHT22;5939;56.522;14.950;2023-01-28T12:57:49;0.90;99.90
11764;DHT22;5939;56.522;14.950;2023-01-28T13:00:35;0.90;99.90
11764;DHT22;5939;56.522;14.950;2023-01-28T13:03:30;1.00;99.90
11764;DHT22;5939;56.522;14.950;2023-01-28T13:06:01;1.00;99.90
11764;DHT22;5939;56.522;14.950;2023-01-28T13:08:29;1.00;99.90
11764;DHT22;5939;56.522;14.950;2023-01-28T13:10:57;1.00;99.90
11764;DHT22;5939;56.522;14.950;2023-01-28T13:13:33;1.00;99.90
11764;DHT22;5939;56.522;14.950;2023-01-28T13:16:00;1.00;99.90
11764;DHT22;5939;56.522;14.950;2023-01-28T13:26:28;1.00;99.90
11764;DHT22;5939;56.522;14.950;2023-01-28T13:29:08;1.10;99.90
11764;DHT22;5939;56.522;14.950;2023-01-28T13:31:44;1.10;99.90
11764;DHT22;5939;56.522;14.950;2023-01-28T13:34:37;1.10;99.90
11764;DHT22;5939;56.522;14.950;2023-01-28T13:37:31;1.10;99.90
11764;DHT22;5939;56.522;14.950;2023-01-28T13:40:02;1.10;99.90
11764;DHT22;5939;56.522;14.950;2023-01-28T13:42:31;1.10;99.90
11764;DHT22;5939;56.522;14.950;2023-01-28T13:47:45;1.10;99.90
11764;DHT22;5939;56.522;14.950;2023-01-28T13:50:15;1.20;99.90
11764;DHT22;5939;56.522;14.950;2023-01-28T13:55:34;1.20;99.90
11764;DHT22;5939;56.522;14.950;2023-01-28T14:03:34;1.20;99.90
11764;DHT22;5939;56.522;14.950;2023-01-28T14:09:24;1.20;99.90
11764;DHT22;5939;56.522;14.950;2023-01-28T14:12:20;1.20;99.90
11764;DHT22;5939;56.522;14.950;2023-01-28T14:15:11;1.20;99.90
11764;DHT22;5939;56.522;14.950;2023-01-28T14:17:43;1.30;99.90
11764;DHT22;5939;56.522;14.950;2023-01-28T14:20:17;1.30;99.90
11764;DHT22;5939;56.522;14.950;2023-01-28T14:22:44;1.30;99.90
11764;DHT22;5939;56.522;14.950;2023-01-28T14:25:15;1.30;99.90
11764;DHT22;5939;56.522;14.950;2023-01-28T14:27:46;1.30;99.90
11764;DHT22;5939;56.522;14.950;2023-01-28T14:30:23;1.30;99.90
11764;DHT22;5939;56.522;14.950;2023-01-28T14:32:51;1.30;99.90
11764;DHT22;5939;56.522;14.950;2023-01-28T14:35:39;1.30;99.90
11764;DHT22;5939;56.522;14.950;2023-01-28T14:38:13;1.30;99.90
11764;DHT22;5939;56.522;14.950;2023-01-28T14:40:41;1.30;99.90
11764;DHT22;5939;56.522;14.950;2023-01-28T14:43:12;1.30;99.90
11764;DHT22;5939;56.522;14.950;2023-01-28T14:48:48;1.40;99.90
11764;DHT22;5939;56.522;14.950;2023-01-28T14:59:28;1.40;99.90
11764;DHT22;5939;56.522;14.950;2023-01-28T15:01:58;1.40;99.90
11764;DHT22;5939;56.522;14.950;2023-01-28T15:04:33;1.40;99.90
11764;DHT22;5939;56.522;14.950;2023-01-28T15:07:20;1.40;99.90
11764;DHT22;5939;56.522;14.950;2023-01-28T15:09:46;1.40;99.90
11764;DHT22;5939;56.522;14.950;2023-01-28T15:12:14;1.40;99.90
11764;DHT22;5939;56.522;14.950;2023-01-28T15:14:42;1.40;99.90
11764;DHT22;5939;56.522;14.950;2023-01-28T15:17:22;1.40;99.90
11764;DHT22;5939;56.522;14.950;2023-01-28T15:19:50;1.40;99.90
11764;DHT22;5939;56.522;14.950;2023-01-28T15:22:18;1.40;99.90
11764;DHT22;5939;56.522;14.950;2023-01-28T15:24:45;1.50;99.90
11764;DHT22;5939;56.522;14.950;2023-01-28T15:27:25;1.40;99.90
11764;DHT22;5939;56.522;14.950;2023-01-28T15:29:54;1.50;99.90
11764;DHT22;5939;56.522;14.950;2023-01-28T15:32:24;1.50;99.90
11764;DHT22;5939;56.522;14.950;2023-01-28T15:34:50;1.50;99.90
11764;DHT22;5939;56.522;14.950;2023-01-28T15:37:17;1.50;99.90
11764;DHT22;5939;56.522;14.950;2023-01-28T15:39:43;1.50;99.90
11764;DHT22;5939;56.522;14.950;2023-01-28T15:42:23;1.50;99.90
11764;DHT22;5939;56.522;14.950;2023-01-28T15:44:54;1.50;99.90
11764;DHT22;5939;56.522;14.950;2023-01-28T15:47:31;1.50;99.90
11764;DHT22;5939;56.522;14.950;2023-01-28T15:50:03;1.50;99.90
11764;DHT22;5939;56.522;14.950;2023-01-28T15:52:38;1.50;99.90
11764;DHT22;5939;56.522;14.950;2023-01-28T15:55:06;1.50;99.90
11764;DHT22;5939;56.522;14.950;2023-01-28T15:57:32;1.50;99.90
11764;DHT22;5939;56.522;14.950;2023-01-28T16:02:31;1.50;99.90
11764;DHT22;5939;56.522;14.950;2023-01-28T16:04:57;1.60;99.90
11764;DHT22;5939;56.522;14.950;2023-01-28T16:07:24;1.60;99.90
11764;DHT22;5939;56.522;14.950;2023-01-28T16:09:53;1.60;99.90
11764;DHT22;5939;56.522;14.950;2023-01-28T16:12:19;1.60;99.90
11764;DHT22;5939;56.522;14.950;2023-01-28T16:14:55;1.60;99.90
11764;DHT22;5939;56.522;14.950;2023-01-28T16:17:25;1.60;99.90
11764;DHT22;5939;56.522;14.950;2023-01-28T16:20:04;1.60;99.90
11764;DHT22;5939;56.522;14.950;2023-01-28T16:22:37;1.60;99.90
11764;DHT22;5939;56.522;14.950;2023-01-28T16:25:33;1.60;99.90
11764;DHT22;5939;56.522;14.950;2023-01-28T16:28:04;1.60;99.90
11764;DHT22;5939;56.522;14.950;2023-01-28T16:30:30;1.60;99.90
11764;DHT22;5939;56.522;14.950;2023-01-28T16:32:56;1.60;99.90
11764;DHT22;5939;56.522;14.950;2023-01-28T16:35:31;1.60;99.90
11764;DHT22;5939;56.522;14.950;2023-01-28T16:37:56;1.60;99.90
11764;DHT22;5939;56.522;14.950;2023-01-28T16:40:23;1.60;99.90
11764;DHT22;5939;56.522;14.950;2023-01-28T16:42:52;1.60;99.90
11764;DHT22;5939;56.522;14.950;2023-01-28T16:45:24;1.70;99.90
11764;DHT22;5939;56.522;14.950;2023-01-28T16:47:51;1.70;99.90
11764;DHT22;5939;56.522;14.950;2023-01-28T16:50:17;1.70;99.90
11764;DHT22;5939;56.522;14.950;2023-01-28T16:52:47;1.70;99.90
11764;DHT22;5939;56.522;14.950;2023-01-28T16:55:15;1.70;99.90
11764;DHT22;5939;56.522;14.950;2023-01-28T16:57:42;1.70;99.90
11764;DHT22;5939;56.522;14.950;2023-01-28T17:00:15;1.70;99.90
11764;DHT22;5939;56.522;14.950;2023-01-28T17:02:41;1.70;99.90
11764;DHT22;5939;56.522;14.950;2023-01-28T17:05:07;1.70;99.90
11764;DHT22;5939;56.522;14.950;2023-01-28T17:07:35;1.70;99.90
11764;DHT22;5939;56.522;14.950;2023-01-28T17:10:02;1.70;99.90
11764;DHT22;5939;56.522;14.950;2023-01-28T17:12:28;1.70;99.90
11764;DHT22;5939;56.522;14.950;2023-01-28T17:14:53;1.70;99.90
11764;DHT22;5939;56.522;14.950;2023-01-28T17:17:19;1.70;99.90
11764;DHT22;5939;56.522;14.950;2023-01-28T17:19:45;1.70;99.90
11764;DHT22;5939;56.522;14.950;2023-01-28T17:22:10;1.70;99.90
11764;DHT22;5939;56.522;14.950;2023-01-28T17:24:36;1.70;99.90
11764;DHT22;5939;56.522;14.950;2023-01-28T17:27:02;1.70;99.90
11764;DHT22;5939;56.522;14.950;2023-01-28T17:29:28;1.80;99.90
11764;DHT22;5939;56.522;14.950;2023-01-28T17:31:54;1.80;99.90
11764;DHT22;5939;56.522;14.950;2023-01-28T17:34:19;1.80;99.90
11764;DHT22;5939;56.522;14.950;2023-01-28T17:36:45;1.80;99.90
11764;DHT22;5939;56.522;14.950;2023-01-28T17:39:11;1.80;99.90
11764;DHT22;5939;56.522;14.950;2023-01-28T17:41:37;1.80;99.90
11764;DHT22;5939;56.522;14.950;2023-01-28T17:44:03;1.80;99.90